sensor_id;sensor_type;location;lat;lon;timestamp;P1;durP1;ratioP1;P2;durP2;ratioP2
44854;SDS011;30591;48.228;16.398;2023-03-21T00:00:39;15.53;;;13.77;;
44854;SDS011;30591;48.228;16.398;2023-03-21T00:03:07;14.40;;;12.67;;
44854;SDS011;30591;48.228;16.398;2023-03-21T00:05:38;18.40;;;12.70;;
44854;SDS011;30591;48.228;16.398;2023-03-21T00:08:15;17.33;;;13.03;;
44854;SDS011;30591;48.228;16.398;2023-03-21T00:10:43;16.70;;;13.83;;
44854;SDS011;30591;48.228;16.398;2023-03-21T00:13:11;17.23;;;13.77;;
44854;SDS011;30591;48.228;16.398;2023-03-21T00:15:40;16.23;;;12.97;;
44854;SDS011;30591;48.228;16.398;2023-03-21T00:18:36;15.27;;;12.93;;
44854;SDS011;30591;48.228;16.398;2023-03-21T00:21:09;16.60;;;12.80;;
44854;SDS011;30591;48.228;16.398;2023-03-21T00:24:01;16.33;;;12.80;;
44854;SDS011;30591;48.228;16.398;2023-03-21T00:26:29;16.30;;;13.60;;
44854;SDS011;30591;48.228;16.398;2023-03-21T00:28:57;16.30;;;13.67;;
44854;SDS011;30591;48.228;16.398;2023-03-21T00:31:24;18.13;;;13.07;;
44854;SDS011;30591;48.228;16.398;2023-03-21T00:33:53;17.17;;;13.23;;
44854;SDS011;30591;48.228;16.398;2023-03-21T00:36:22;15.67;;;13.30;;
44854;SDS011;30591;48.228;16.398;2023-03-21T00:38:52;17.40;;;13.23;;
44854;SDS011;30591;48.228;16.398;2023-03-21T00:41:20;16.50;;;13.23;;
44854;SDS011;30591;48.228;16.398;2023-03-21T00:44:07;17.20;;;12.80;;
44854;SDS011;30591;48.228;16.398;2023-03-21T00:46:37;13.83;;;11.23;;
44854;SDS011;30591;48.228;16.398;2023-03-21T00:49:20;10.90;;;9.80;;
44854;SDS011;30591;48.228;16.398;2023-03-21T00:51:47;12.00;;;10.30;;
44854;SDS011;30591;48.228;16.398;2023-03-21T00:54:17;12.80;;;9.57;;
44854;SDS011;30591;48.228;16.398;2023-03-21T00:56:45;11.97;;;10.60;;
44854;SDS011;30591;48.228;16.398;2023-03-21T00:59:12;11.63;;;9.70;;
44854;SDS011;30591;48.228;16.398;2023-03-21T01:01:42;12.30;;;11.00;;
44854;SDS011;30591;48.228;16.398;2023-03-21T01:04:13;12.47;;;10.47;;
44854;SDS011;30591;48.228;16.398;2023-03-21T01:06:42;11.87;;;10.60;;
44854;SDS011;30591;48.228;16.398;2023-03-21T01:09:18;13.20;;;10.47;;
44854;SDS011;30591;48.228;16.398;2023-03-21T01:11:49;14.63;;;10.97;;
44854;SDS011;30591;48.228;16.398;2023-03-21T01:14:17;11.80;;;10.40;;
44854;SDS011;30591;48.228;16.398;2023-03-21T01:16:50;13.70;;;11.73;;
44854;SDS011;30591;48.228;16.398;2023-03-21T01:19:20;14.03;;;11.67;;
44854;SDS011;30591;48.228;16.398;2023-03-21T01:22:06;13.53;;;11.60;;
44854;SDS011;30591;48.228;16.398;2023-03-21T01:24:34;15.17;;;12.30;;
44854;SDS011;30591;48.228;16.398;2023-03-21T01:27:13;13.20;;;11.73;;
44854;SDS011;30591;48.228;16.398;2023-03-21T01:29:40;15.07;;;12.20;;
44854;SDS011;30591;48.228;16.398;2023-03-21T01:32:07;14.73;;;11.63;;
44854;SDS011;30591;48.228;16.398;2023-03-21T01:34:35;13.83;;;11.53;;
44854;SDS011;30591;48.228;16.398;2023-03-21T01:37:02;15.47;;;12.57;;
44854;SDS011;30591;48.228;16.398;2023-03-21T01:39:36;16.70;;;13.10;;
44854;SDS011;30591;48.228;16.398;2023-03-21T01:42:03;16.27;;;12.30;;
44854;SDS011;30591;48.228;16.398;2023-03-21T01:44:31;15.17;;;12.60;;
44854;SDS011;30591;48.228;16.398;2023-03-21T01:46:58;14.73;;;12.57;;
44854;SDS011;30591;48.228;16.398;2023-03-21T01:49:44;15.07;;;12.80;;
44854;SDS011;30591;48.228;16.398;2023-03-21T01:52:21;15.57;;;12.70;;
44854;SDS011;30591;48.228;16.398;2023-03-21T01:55:10;14.97;;;12.63;;
44854;SDS011;30591;48.228;16.398;2023-03-21T01:57:50;17.00;;;12.60;;
44854;SDS011;30591;48.228;16.398;2023-03-21T02:00:58;14.00;;;12.07;;
44854;SDS011;30591;48.228;16.398;2023-03-21T02:03:38;17.70;;;13.20;;
44854;SDS011;30591;48.228;16.398;2023-03-21T02:06:33;16.00;;;12.70;;
44854;SDS011;30591;48.228;16.398;2023-03-21T02:09:33;15.27;;;12.93;;
44854;SDS011;30591;48.228;16.398;2023-03-21T02:12:06;17.90;;;13.97;;
44854;SDS011;30591;48.228;16.398;2023-03-21T02:14:35;14.53;;;12.53;;
44854;SDS011;30591;48.228;16.398;2023-03-21T02:23:45;16.47;;;13.23;;
44854;SDS011;30591;48.228;16.398;2023-03-21T02:26:39;15.70;;;12.87;;
44854;SDS011;30591;48.228;16.398;2023-03-21T02:33:04;16.50;;;13.83;;
44854;SDS011;30591;48.228;16.398;2023-03-21T02:36:01;17.10;;;12.83;;
44854;SDS011;30591;48.228;16.398;2023-03-21T02:44:42;16.87;;;12.33;;
44854;SDS011;30591;48.228;16.398;2023-03-21T02:52:41;15.73;;;12.97;;
44854;SDS011;30591;48.228;16.398;2023-03-21T02:55:14;16.27;;;12.40;;
44854;SDS011;30591;48.228;16.398;2023-03-21T02:57:54;15.47;;;12.17;;
44854;SDS011;30591;48.228;16.398;2023-03-21T03:00:31;15.27;;;11.87;;
44854;SDS011;30591;48.228;16.398;2023-03-21T03:03:02;16.00;;;12.70;;
44854;SDS011;30591;48.228;16.398;2023-03-21T03:05:56;14.97;;;12.20;;
44854;SDS011;30591;48.228;16.398;2023-03-21T03:08:30;16.63;;;12.53;;
44854;SDS011;30591;48.228;16.398;2023-03-21T03:11:29;14.70;;;12.73;;
44854;SDS011;30591;48.228;16.398;2023-03-21T03:14:24;16.53;;;12.93;;
44854;SDS011;30591;48.228;16.398;2023-03-21T03:25:19;15.13;;;12.27;;
44854;SDS011;30591;48.228;16.398;2023-03-21T03:28:18;16.83;;;13.60;;
44854;SDS011;30591;48.228;16.398;2023-03-21T03:30:51;16.77;;;13.07;;
44854;SDS011;30591;48.228;16.398;2023-03-21T03:33:41;16.27;;;12.80;;
44854;SDS011;30591;48.228;16.398;2023-03-21T03:36:13;14.20;;;12.23;;
44854;SDS011;30591;48.228;16.398;2023-03-21T03:39:05;15.33;;;13.17;;
44854;SDS011;30591;48.228;16.398;2023-03-21T03:41:46;15.10;;;12.53;;
44854;SDS011;30591;48.228;16.398;2023-03-21T03:44:39;18.03;;;13.47;;
44854;SDS011;30591;48.228;16.398;2023-03-21T03:47:09;15.13;;;12.83;;
44854;SDS011;30591;48.228;16.398;2023-03-21T03:50:13;17.13;;;13.10;;
44854;SDS011;30591;48.228;16.398;2023-03-21T03:52:53;15.97;;;12.90;;
44854;SDS011;30591;48.228;16.398;2023-03-21T03:55:44;18.27;;;13.83;;
44854;SDS011;30591;48.228;16.398;2023-03-21T03:58:18;19.40;;;13.57;;
44854;SDS011;30591;48.228;16.398;2023-03-21T04:00:53;15.87;;;13.80;;
44854;SDS011;30591;48.228;16.398;2023-03-21T04:03:22;17.50;;;13.57;;
44854;SDS011;30591;48.228;16.398;2023-03-21T04:05:50;14.13;;;12.03;;
44854;SDS011;30591;48.228;16.398;2023-03-21T04:08:18;18.37;;;14.40;;
44854;SDS011;30591;48.228;16.398;2023-03-21T04:10:50;18.17;;;13.30;;
44854;SDS011;30591;48.228;16.398;2023-03-21T04:13:19;15.40;;;12.63;;
44854;SDS011;30591;48.228;16.398;2023-03-21T04:16:03;17.03;;;13.80;;
44854;SDS011;30591;48.228;16.398;2023-03-21T04:18:31;16.70;;;13.37;;
44854;SDS011;30591;48.228;16.398;2023-03-21T04:20:58;15.03;;;12.77;;
44854;SDS011;30591;48.228;16.398;2023-03-21T04:23:28;15.27;;;12.47;;
44854;SDS011;30591;48.228;16.398;2023-03-21T04:25:55;17.07;;;13.17;;
44854;SDS011;30591;48.228;16.398;2023-03-21T04:28:34;16.97;;;13.93;;
44854;SDS011;30591;48.228;16.398;2023-03-21T04:31:26;16.50;;;13.10;;
44854;SDS011;30591;48.228;16.398;2023-03-21T04:34:05;16.07;;;13.43;;
44854;SDS011;30591;48.228;16.398;2023-03-21T04:36:38;18.13;;;13.77;;
44854;SDS011;30591;48.228;16.398;2023-03-21T04:39:13;17.47;;;13.77;;
44854;SDS011;30591;48.228;16.398;2023-03-21T04:41:44;17.83;;;14.57;;
44854;SDS011;30591;48.228;16.398;2023-03-21T04:44:13;18.40;;;14.07;;
44854;SDS011;30591;48.228;16.398;2023-03-21T04:46:43;17.13;;;13.60;;
44854;SDS011;30591;48.228;16.398;2023-03-21T04:49:11;16.50;;;14.53;;
44854;SDS011;30591;48.228;16.398;2023-03-21T04:51:40;17.60;;;13.63;;
44854;SDS011;30591;48.228;16.398;2023-03-21T04:54:11;17.17;;;14.37;;
44854;SDS011;30591;48.228;16.398;2023-03-21T04:56:40;53.40;;;27.80;;
44854;SDS011;30591;48.228;16.398;2023-03-21T04:59:09;44.40;;;26.10;;
44854;SDS011;30591;48.228;16.398;2023-03-21T05:01:38;40.50;;;22.70;;
44854;SDS011;30591;48.228;16.398;2023-03-21T05:04:08;35.70;;;21.90;;
44854;SDS011;30591;48.228;16.398;2023-03-21T05:06:37;23.47;;;16.63;;
44854;SDS011;30591;48.228;16.398;2023-03-21T05:09:08;23.63;;;17.23;;
44854;SDS011;30591;48.228;16.398;2023-03-21T05:11:36;22.67;;;16.20;;
44854;SDS011;30591;48.228;16.398;2023-03-21T05:14:07;18.70;;;14.80;;
44854;SDS011;30591;48.228;16.398;2023-03-21T05:16:35;18.67;;;15.13;;
44854;SDS011;30591;48.228;16.398;2023-03-21T05:19:16;19.27;;;15.10;;
44854;SDS011;30591;48.228;16.398;2023-03-21T05:21:45;17.17;;;14.53;;
44854;SDS011;30591;48.228;16.398;2023-03-21T05:24:18;19.73;;;15.27;;
44854;SDS011;30591;48.228;16.398;2023-03-21T05:26:49;21.23;;;15.63;;
44854;SDS011;30591;48.228;16.398;2023-03-21T05:29:24;18.40;;;15.03;;
44854;SDS011;30591;48.228;16.398;2023-03-21T05:31:59;18.53;;;15.10;;
44854;SDS011;30591;48.228;16.398;2023-03-21T05:34:27;20.10;;;14.50;;
44854;SDS011;30591;48.228;16.398;2023-03-21T05:36:55;21.63;;;16.13;;
44854;SDS011;30591;48.228;16.398;2023-03-21T05:39:28;21.13;;;14.50;;
44854;SDS011;30591;48.228;16.398;2023-03-21T05:42:04;19.93;;;14.40;;
44854;SDS011;30591;48.228;16.398;2023-03-21T05:44:32;22.90;;;15.00;;
44854;SDS011;30591;48.228;16.398;2023-03-21T05:47:02;19.13;;;15.07;;
44854;SDS011;30591;48.228;16.398;2023-03-21T05:49:40;18.17;;;14.77;;
44854;SDS011;30591;48.228;16.398;2023-03-21T05:52:07;20.37;;;15.03;;
44854;SDS011;30591;48.228;16.398;2023-03-21T05:54:35;18.07;;;14.40;;
44854;SDS011;30591;48.228;16.398;2023-03-21T05:57:03;17.23;;;14.80;;
44854;SDS011;30591;48.228;16.398;2023-03-21T05:59:49;21.03;;;15.70;;
44854;SDS011;30591;48.228;16.398;2023-03-21T06:02:17;19.53;;;14.90;;
44854;SDS011;30591;48.228;16.398;2023-03-21T06:04:46;19.10;;;14.40;;
44854;SDS011;30591;48.228;16.398;2023-03-21T06:07:15;19.10;;;14.00;;
44854;SDS011;30591;48.228;16.398;2023-03-21T06:09:42;18.53;;;14.43;;
44854;SDS011;30591;48.228;16.398;2023-03-21T06:12:10;17.23;;;14.23;;
44854;SDS011;30591;48.228;16.398;2023-03-21T06:14:59;18.43;;;14.03;;
44854;SDS011;30591;48.228;16.398;2023-03-21T06:17:30;16.17;;;13.63;;
44854;SDS011;30591;48.228;16.398;2023-03-21T06:20:05;17.13;;;13.33;;
44854;SDS011;30591;48.228;16.398;2023-03-21T06:22:42;16.73;;;13.50;;
44854;SDS011;30591;48.228;16.398;2023-03-21T06:25:09;16.00;;;12.47;;
44854;SDS011;30591;48.228;16.398;2023-03-21T06:27:37;19.67;;;13.67;;
44854;SDS011;30591;48.228;16.398;2023-03-21T06:30:06;17.13;;;14.67;;
44854;SDS011;30591;48.228;16.398;2023-03-21T06:32:55;16.20;;;14.30;;
44854;SDS011;30591;48.228;16.398;2023-03-21T06:35:22;17.63;;;13.87;;
44854;SDS011;30591;48.228;16.398;2023-03-21T06:37:50;19.40;;;13.10;;
44854;SDS011;30591;48.228;16.398;2023-03-21T06:40:19;15.20;;;12.93;;
44854;SDS011;30591;48.228;16.398;2023-03-21T06:42:46;15.83;;;13.20;;
44854;SDS011;30591;48.228;16.398;2023-03-21T06:45:14;17.53;;;13.33;;
44854;SDS011;30591;48.228;16.398;2023-03-21T06:47:42;17.13;;;12.07;;
44854;SDS011;30591;48.228;16.398;2023-03-21T06:50:23;14.43;;;11.90;;
44854;SDS011;30591;48.228;16.398;2023-03-21T06:52:51;15.10;;;12.57;;
44854;SDS011;30591;48.228;16.398;2023-03-21T06:55:18;17.80;;;11.50;;
44854;SDS011;30591;48.228;16.398;2023-03-21T06:57:53;13.40;;;11.37;;
44854;SDS011;30591;48.228;16.398;2023-03-21T07:00:25;13.13;;;11.73;;
44854;SDS011;30591;48.228;16.398;2023-03-21T07:02:53;14.27;;;12.37;;
44854;SDS011;30591;48.228;16.398;2023-03-21T07:05:23;14.37;;;12.80;;
44854;SDS011;30591;48.228;16.398;2023-03-21T07:07:50;15.17;;;12.53;;
44854;SDS011;30591;48.228;16.398;2023-03-21T07:10:17;18.50;;;12.93;;
44854;SDS011;30591;48.228;16.398;2023-03-21T07:12:57;13.13;;;11.27;;
44854;SDS011;30591;48.228;16.398;2023-03-21T07:15:40;14.70;;;12.10;;
44854;SDS011;30591;48.228;16.398;2023-03-21T07:18:08;12.17;;;10.20;;
44854;SDS011;30591;48.228;16.398;2023-03-21T07:20:35;11.97;;;10.57;;
44854;SDS011;30591;48.228;16.398;2023-03-21T07:23:06;12.17;;;10.73;;
44854;SDS011;30591;48.228;16.398;2023-03-21T07:25:33;11.33;;;10.13;;
44854;SDS011;30591;48.228;16.398;2023-03-21T07:28:01;13.30;;;10.43;;
44854;SDS011;30591;48.228;16.398;2023-03-21T07:30:29;12.40;;;9.57;;
44854;SDS011;30591;48.228;16.398;2023-03-21T07:32:56;12.10;;;9.90;;
44854;SDS011;30591;48.228;16.398;2023-03-21T07:35:23;11.27;;;10.10;;
44854;SDS011;30591;48.228;16.398;2023-03-21T07:37:51;11.27;;;9.27;;
44854;SDS011;30591;48.228;16.398;2023-03-21T07:40:18;10.63;;;9.37;;
44854;SDS011;30591;48.228;16.398;2023-03-21T07:42:47;10.90;;;9.63;;
44854;SDS011;30591;48.228;16.398;2023-03-21T07:45:27;11.67;;;9.67;;
44854;SDS011;30591;48.228;16.398;2023-03-21T07:47:54;13.33;;;8.60;;
44854;SDS011;30591;48.228;16.398;2023-03-21T07:50:22;10.50;;;9.13;;
44854;SDS011;30591;48.228;16.398;2023-03-21T07:52:49;10.87;;;8.47;;
44854;SDS011;30591;48.228;16.398;2023-03-21T07:55:17;10.43;;;9.07;;
44854;SDS011;30591;48.228;16.398;2023-03-21T07:57:44;11.33;;;9.80;;
44854;SDS011;30591;48.228;16.398;2023-03-21T08:00:15;10.03;;;8.20;;
44854;SDS011;30591;48.228;16.398;2023-03-21T08:02:49;10.97;;;8.23;;
44854;SDS011;30591;48.228;16.398;2023-03-21T08:05:25;10.40;;;8.30;;
44854;SDS011;30591;48.228;16.398;2023-03-21T08:07:56;10.83;;;8.57;;
44854;SDS011;30591;48.228;16.398;2023-03-21T08:10:23;10.23;;;9.23;;
44854;SDS011;30591;48.228;16.398;2023-03-21T08:12:51;9.87;;;8.73;;
44854;SDS011;30591;48.228;16.398;2023-03-21T08:15:18;11.53;;;7.77;;
44854;SDS011;30591;48.228;16.398;2023-03-21T08:17:46;10.77;;;7.67;;
44854;SDS011;30591;48.228;16.398;2023-03-21T08:20:14;10.73;;;7.70;;
44854;SDS011;30591;48.228;16.398;2023-03-21T08:22:44;10.63;;;8.33;;
44854;SDS011;30591;48.228;16.398;2023-03-21T08:25:12;13.03;;;8.97;;
44854;SDS011;30591;48.228;16.398;2023-03-21T08:27:40;8.47;;;7.00;;
44854;SDS011;30591;48.228;16.398;2023-03-21T08:30:09;8.83;;;7.10;;
44854;SDS011;30591;48.228;16.398;2023-03-21T08:32:38;9.40;;;7.07;;
44854;SDS011;30591;48.228;16.398;2023-03-21T08:35:08;8.80;;;6.60;;
44854;SDS011;30591;48.228;16.398;2023-03-21T08:37:39;12.57;;;6.60;;
44854;SDS011;30591;48.228;16.398;2023-03-21T08:40:12;9.00;;;6.83;;
44854;SDS011;30591;48.228;16.398;2023-03-21T08:42:42;7.53;;;6.27;;
44854;SDS011;30591;48.228;16.398;2023-03-21T08:45:10;9.60;;;7.90;;
44854;SDS011;30591;48.228;16.398;2023-03-21T08:47:39;8.70;;;6.23;;
44854;SDS011;30591;48.228;16.398;2023-03-21T08:50:07;11.57;;;7.27;;
44854;SDS011;30591;48.228;16.398;2023-03-21T08:52:37;12.20;;;7.40;;
44854;SDS011;30591;48.228;16.398;2023-03-21T08:55:04;7.70;;;6.90;;
44854;SDS011;30591;48.228;16.398;2023-03-21T08:57:32;8.40;;;7.07;;
44854;SDS011;30591;48.228;16.398;2023-03-21T08:59:59;9.13;;;6.77;;
44854;SDS011;30591;48.228;16.398;2023-03-21T09:02:26;8.33;;;6.97;;
44854;SDS011;30591;48.228;16.398;2023-03-21T09:04:53;9.43;;;7.33;;
44854;SDS011;30591;48.228;16.398;2023-03-21T09:07:24;10.37;;;6.70;;
44854;SDS011;30591;48.228;16.398;2023-03-21T09:09:53;7.73;;;6.00;;
44854;SDS011;30591;48.228;16.398;2023-03-21T09:12:41;8.87;;;6.30;;
44854;SDS011;30591;48.228;16.398;2023-03-21T09:15:09;7.13;;;5.80;;
44854;SDS011;30591;48.228;16.398;2023-03-21T09:17:38;7.20;;;5.93;;
44854;SDS011;30591;48.228;16.398;2023-03-21T09:20:10;7.33;;;6.13;;
44854;SDS011;30591;48.228;16.398;2023-03-21T09:22:47;7.80;;;5.73;;
44854;SDS011;30591;48.228;16.398;2023-03-21T09:25:17;7.43;;;5.57;;
44854;SDS011;30591;48.228;16.398;2023-03-21T09:27:46;7.20;;;6.23;;
44854;SDS011;30591;48.228;16.398;2023-03-21T09:30:14;8.93;;;6.87;;
44854;SDS011;30591;48.228;16.398;2023-03-21T09:32:43;10.27;;;7.97;;
44854;SDS011;30591;48.228;16.398;2023-03-21T09:35:17;8.10;;;7.30;;
44854;SDS011;30591;48.228;16.398;2023-03-21T09:37:46;8.87;;;7.40;;
44854;SDS011;30591;48.228;16.398;2023-03-21T09:40:20;10.60;;;7.73;;
44854;SDS011;30591;48.228;16.398;2023-03-21T09:43:01;8.50;;;7.50;;
44854;SDS011;30591;48.228;16.398;2023-03-21T09:45:57;7.87;;;6.70;;
44854;SDS011;30591;48.228;16.398;2023-03-21T09:48:49;8.17;;;7.33;;
44854;SDS011;30591;48.228;16.398;2023-03-21T09:51:28;9.03;;;6.50;;
44854;SDS011;30591;48.228;16.398;2023-03-21T09:54:04;9.17;;;7.10;;
44854;SDS011;30591;48.228;16.398;2023-03-21T09:56:39;8.27;;;7.03;;
44854;SDS011;30591;48.228;16.398;2023-03-21T09:59:09;6.90;;;6.20;;
44854;SDS011;30591;48.228;16.398;2023-03-21T10:01:53;8.47;;;6.10;;
44854;SDS011;30591;48.228;16.398;2023-03-21T10:04:21;8.00;;;6.20;;
44854;SDS011;30591;48.228;16.398;2023-03-21T10:06:55;6.97;;;6.07;;
44854;SDS011;30591;48.228;16.398;2023-03-21T10:09:25;7.23;;;6.03;;
44854;SDS011;30591;48.228;16.398;2023-03-21T10:14:39;6.27;;;4.93;;
44854;SDS011;30591;48.228;16.398;2023-03-21T10:20:11;5.00;;;4.60;;
44854;SDS011;30591;48.228;16.398;2023-03-21T10:22:40;8.37;;;5.20;;
44854;SDS011;30591;48.228;16.398;2023-03-21T10:25:12;5.63;;;4.40;;
44854;SDS011;30591;48.228;16.398;2023-03-21T10:27:43;5.47;;;4.10;;
44854;SDS011;30591;48.228;16.398;2023-03-21T10:30:55;5.77;;;4.27;;
44854;SDS011;30591;48.228;16.398;2023-03-21T10:33:26;4.63;;;4.23;;
44854;SDS011;30591;48.228;16.398;2023-03-21T10:36:01;6.00;;;4.87;;
44854;SDS011;30591;48.228;16.398;2023-03-21T10:38:33;6.03;;;4.67;;
44854;SDS011;30591;48.228;16.398;2023-03-21T10:41:03;6.57;;;4.47;;
44854;SDS011;30591;48.228;16.398;2023-03-21T10:43:32;6.93;;;5.20;;
44854;SDS011;30591;48.228;16.398;2023-03-21T10:46:07;4.83;;;4.37;;
44854;SDS011;30591;48.228;16.398;2023-03-21T10:48:50;4.67;;;4.23;;
44854;SDS011;30591;48.228;16.398;2023-03-21T10:51:19;5.83;;;4.43;;
44854;SDS011;30591;48.228;16.398;2023-03-21T10:53:57;5.67;;;4.20;;
44854;SDS011;30591;48.228;16.398;2023-03-21T10:56:28;3.90;;;3.50;;
44854;SDS011;30591;48.228;16.398;2023-03-21T10:59:00;5.83;;;3.93;;
44854;SDS011;30591;48.228;16.398;2023-03-21T11:01:36;4.23;;;3.20;;
44854;SDS011;30591;48.228;16.398;2023-03-21T11:04:09;4.17;;;3.00;;
44854;SDS011;30591;48.228;16.398;2023-03-21T11:06:42;4.07;;;3.67;;
44854;SDS011;30591;48.228;16.398;2023-03-21T11:09:17;5.37;;;4.43;;
44854;SDS011;30591;48.228;16.398;2023-03-21T11:11:54;5.67;;;3.90;;
44854;SDS011;30591;48.228;16.398;2023-03-21T11:19:46;5.07;;;4.23;;
44854;SDS011;30591;48.228;16.398;2023-03-21T11:22:39;4.67;;;4.27;;
44854;SDS011;30591;48.228;16.398;2023-03-21T11:25:09;4.90;;;4.10;;
44854;SDS011;30591;48.228;16.398;2023-03-21T11:27:54;7.40;;;4.40;;
44854;SDS011;30591;48.228;16.398;2023-03-21T11:30:23;5.33;;;3.93;;
44854;SDS011;30591;48.228;16.398;2023-03-21T11:32:56;4.97;;;3.73;;
44854;SDS011;30591;48.228;16.398;2023-03-21T11:35:31;4.83;;;4.27;;
44854;SDS011;30591;48.228;16.398;2023-03-21T11:38:00;4.63;;;4.17;;
44854;SDS011;30591;48.228;16.398;2023-03-21T11:40:30;7.27;;;4.63;;
44854;SDS011;30591;48.228;16.398;2023-03-21T11:43:05;4.97;;;4.30;;
44854;SDS011;30591;48.228;16.398;2023-03-21T11:48:45;4.82;;;4.32;;
44854;SDS011;30591;48.228;16.398;2023-03-21T11:54:23;5.18;;;3.95;;
44854;SDS011;30591;48.228;16.398;2023-03-21T11:57:32;4.45;;;3.58;;
44854;SDS011;30591;48.228;16.398;2023-03-21T12:00:14;4.72;;;3.85;;
44854;SDS011;30591;48.228;16.398;2023-03-21T12:03:00;4.35;;;3.95;;
44854;SDS011;30591;48.228;16.398;2023-03-21T12:05:44;3.78;;;2.95;;
44854;SDS011;30591;48.228;16.398;2023-03-21T12:27:18;3.53;;;3.20;;
44854;SDS011;30591;48.228;16.398;2023-03-21T12:32:56;3.67;;;3.15;;
44854;SDS011;30591;48.228;16.398;2023-03-21T12:38:14;3.88;;;3.17;;
44854;SDS011;30591;48.228;16.398;2023-03-21T12:49:08;3.87;;;3.30;;
44854;SDS011;30591;48.228;16.398;2023-03-21T12:51:43;4.57;;;2.90;;
44854;SDS011;30591;48.228;16.398;2023-03-21T13:00:08;4.67;;;3.20;;
44854;SDS011;30591;48.228;16.398;2023-03-21T13:05:30;3.87;;;2.93;;
44854;SDS011;30591;48.228;16.398;2023-03-21T13:08:06;4.07;;;2.87;;
44854;SDS011;30591;48.228;16.398;2023-03-21T13:10:40;4.03;;;3.17;;
44854;SDS011;30591;48.228;16.398;2023-03-21T13:13:13;5.03;;;2.73;;
44854;SDS011;30591;48.228;16.398;2023-03-21T13:15:56;4.13;;;3.50;;
44854;SDS011;30591;48.228;16.398;2023-03-21T13:24:39;6.23;;;3.43;;
44854;SDS011;30591;48.228;16.398;2023-03-21T13:32:41;6.68;;;4.55;;
44854;SDS011;30591;48.228;16.398;2023-03-21T13:37:51;8.98;;;5.90;;
44854;SDS011;30591;48.228;16.398;2023-03-21T13:42:51;4.90;;;4.40;;
44854;SDS011;30591;48.228;16.398;2023-03-21T13:45:26;3.80;;;3.50;;
44854;SDS011;30591;48.228;16.398;2023-03-21T13:47:58;3.88;;;3.55;;
44854;SDS011;30591;48.228;16.398;2023-03-21T13:55:43;3.65;;;3.33;;
44854;SDS011;30591;48.228;16.398;2023-03-21T13:58:22;3.70;;;3.40;;
44854;SDS011;30591;48.228;16.398;2023-03-21T14:03:47;4.78;;;3.70;;
44854;SDS011;30591;48.228;16.398;2023-03-21T14:06:15;3.15;;;2.95;;
44854;SDS011;30591;48.228;16.398;2023-03-21T14:08:44;3.92;;;3.03;;
44854;SDS011;30591;48.228;16.398;2023-03-21T14:11:16;3.67;;;2.80;;
44854;SDS011;30591;48.228;16.398;2023-03-21T14:13:45;4.15;;;3.75;;
44854;SDS011;30591;48.228;16.398;2023-03-21T14:16:17;25.58;;;19.58;;
44854;SDS011;30591;48.228;16.398;2023-03-21T14:18:53;5.30;;;4.65;;
44854;SDS011;30591;48.228;16.398;2023-03-21T14:21:23;17.10;;;15.32;;
44854;SDS011;30591;48.228;16.398;2023-03-21T14:26:31;139.50;;;125.82;;
44854;SDS011;30591;48.228;16.398;2023-03-21T14:29:03;63.63;;;56.70;;
44854;SDS011;30591;48.228;16.398;2023-03-21T14:31:41;23.13;;;20.70;;
44854;SDS011;30591;48.228;16.398;2023-03-21T14:34:12;21.45;;;13.77;;
44854;SDS011;30591;48.228;16.398;2023-03-21T14:36:43;24.98;;;15.18;;
44854;SDS011;30591;48.228;16.398;2023-03-21T14:39:23;13.57;;;10.87;;
44854;SDS011;30591;48.228;16.398;2023-03-21T14:42:01;11.97;;;10.67;;
44854;SDS011;30591;48.228;16.398;2023-03-21T14:44:32;8.60;;;5.97;;
44854;SDS011;30591;48.228;16.398;2023-03-21T14:47:23;5.70;;;5.03;;
44854;SDS011;30591;48.228;16.398;2023-03-21T14:49:54;4.60;;;3.87;;
44854;SDS011;30591;48.228;16.398;2023-03-21T14:52:28;5.50;;;3.90;;
44854;SDS011;30591;48.228;16.398;2023-03-21T14:54:58;5.67;;;4.80;;
44854;SDS011;30591;48.228;16.398;2023-03-21T14:57:29;7.00;;;4.67;;
44854;SDS011;30591;48.228;16.398;2023-03-21T14:59:59;4.27;;;3.87;;
44854;SDS011;30591;48.228;16.398;2023-03-21T15:02:38;6.57;;;4.50;;
44854;SDS011;30591;48.228;16.398;2023-03-21T15:05:09;10.03;;;5.17;;
44854;SDS011;30591;48.228;16.398;2023-03-21T15:07:59;18.77;;;12.50;;
44854;SDS011;30591;48.228;16.398;2023-03-21T15:10:30;76.10;;;49.20;;
44854;SDS011;30591;48.228;16.398;2023-03-21T15:12:58;39.47;;;26.53;;
44854;SDS011;30591;48.228;16.398;2023-03-21T15:15:29;19.37;;;13.17;;
44854;SDS011;30591;48.228;16.398;2023-03-21T15:18:02;20.13;;;13.47;;
44854;SDS011;30591;48.228;16.398;2023-03-21T15:20:31;29.77;;;19.63;;
44854;SDS011;30591;48.228;16.398;2023-03-21T15:23:02;26.33;;;13.70;;
44854;SDS011;30591;48.228;16.398;2023-03-21T15:25:38;5.73;;;3.87;;
44854;SDS011;30591;48.228;16.398;2023-03-21T15:28:06;4.23;;;3.40;;
44854;SDS011;30591;48.228;16.398;2023-03-21T15:30:39;3.30;;;2.77;;
44854;SDS011;30591;48.228;16.398;2023-03-21T15:33:18;2.27;;;2.00;;
44854;SDS011;30591;48.228;16.398;2023-03-21T15:35:50;3.97;;;1.97;;
44854;SDS011;30591;48.228;16.398;2023-03-21T15:38:31;6.13;;;2.30;;
44854;SDS011;30591;48.228;16.398;2023-03-21T15:41:12;3.73;;;2.67;;
44854;SDS011;30591;48.228;16.398;2023-03-21T15:43:46;5.83;;;2.90;;
44854;SDS011;30591;48.228;16.398;2023-03-21T15:51:34;11.97;;;3.57;;
44854;SDS011;30591;48.228;16.398;2023-03-21T15:54:03;7.47;;;3.03;;
44854;SDS011;30591;48.228;16.398;2023-03-21T15:56:32;5.17;;;2.53;;
44854;SDS011;30591;48.228;16.398;2023-03-21T15:59:01;5.70;;;2.23;;
44854;SDS011;30591;48.228;16.398;2023-03-21T16:01:31;5.83;;;2.90;;
44854;SDS011;30591;48.228;16.398;2023-03-21T16:04:06;3.87;;;2.80;;
44854;SDS011;30591;48.228;16.398;2023-03-21T16:06:38;3.37;;;2.90;;
44854;SDS011;30591;48.228;16.398;2023-03-21T16:09:18;4.43;;;2.50;;
44854;SDS011;30591;48.228;16.398;2023-03-21T16:11:55;5.93;;;2.90;;
44854;SDS011;30591;48.228;16.398;2023-03-21T16:14:25;3.97;;;3.40;;
44854;SDS011;30591;48.228;16.398;2023-03-21T16:16:53;16.53;;;14.83;;
44854;SDS011;30591;48.228;16.398;2023-03-21T16:19:22;8.27;;;7.23;;
44854;SDS011;30591;48.228;16.398;2023-03-21T16:21:50;7.07;;;4.00;;
44854;SDS011;30591;48.228;16.398;2023-03-21T16:24:19;5.20;;;3.10;;
44854;SDS011;30591;48.228;16.398;2023-03-21T16:26:46;4.27;;;3.50;;
44854;SDS011;30591;48.228;16.398;2023-03-21T16:29:17;4.27;;;2.67;;
44854;SDS011;30591;48.228;16.398;2023-03-21T16:31:46;8.77;;;2.83;;
44854;SDS011;30591;48.228;16.398;2023-03-21T16:34:14;10.63;;;2.60;;
44854;SDS011;30591;48.228;16.398;2023-03-21T16:36:42;9.37;;;2.60;;
44854;SDS011;30591;48.228;16.398;2023-03-21T16:39:11;6.73;;;3.80;;
44854;SDS011;30591;48.228;16.398;2023-03-21T16:41:44;11.50;;;4.30;;
44854;SDS011;30591;48.228;16.398;2023-03-21T16:44:12;10.10;;;6.20;;
44854;SDS011;30591;48.228;16.398;2023-03-21T16:46:39;18.60;;;9.10;;
44854;SDS011;30591;48.228;16.398;2023-03-21T16:51:45;39.43;;;22.60;;
44854;SDS011;30591;48.228;16.398;2023-03-21T16:54:13;47.23;;;26.07;;
44854;SDS011;30591;48.228;16.398;2023-03-21T16:56:44;54.30;;;28.07;;
44854;SDS011;30591;48.228;16.398;2023-03-21T16:59:14;56.70;;;28.07;;